Pagina principale
METAR-TAF:

METAR-TAF

Aeroporti :

Aeroporto di Firenze-Peretola

Firenze, Italia

latitudine: 43-48N, longitudine: 011-12E, altezza: 40 m

Osservazione

Il bollettino è stato emesso 25 minuti fa, alle 05:20 UTC
Vento 3 kt da sud/sud-ovest
Temperature 18°C
Umidità 77%
Pressione 1017 hPa
Visibilità 10 km o più
nessuna nube inferiore a 1500 m e nessun cumulonembo

METAR: LIRQ 030520Z 21003KT CAVOK 18/14 Q1017

Ora: 07:45 (05:45 UTC)

Previsione

Il bollettino è stato emesso 45 minuti fa, alle 05:00 UTC
Previsione valida dal 03 alle 06 UTC al 04 alle 06 UTC
Vento 5 kt da direzioni variabili
Visibilità 10 km o più
nessuna nube inferiore a 1500 m e nessun cumulonembo
Evoluzione graduale
dal 03 alle 09 UTC al 03 alle 11 UTC
Vento 12 kt da ovest/sud-ovest
Evoluzione graduale
dal 03 alle 18 UTC al 03 alle 20 UTC
Vento 5 kt da direzioni variabili

TAF: LIRQ 030500Z 0306/0406 VRB05KT CAVOK BECMG 0309/0311 25012KT BECMG 0318/0320 VRB05KT

Osservazioni e previsioni meteorologiche di più di 4000 aeroporti (messaggi METAR e TAF).

Le stazioni disponibili sono rappresentate dai dischi gialli e rossi sulla carta.

Puntare il mouse per vedere il nome della stazione.

Clicca sopra per visualizzare le osservazioni e previsioni meteorologiche.

Per cambiare la mappa : fare clic sui pulsanti verdi con una croce nera per ingrandire, il pulsante verde con un trattino per diminuire, o sulla freccia verde per le mappe adiacenti.


METAR-TAF: